sensor_id;sensor_type;location;lat;lon;timestamp;temperature;humidity
68476;DHT22;55464;48.266;14.188;2022-08-19T00:01:12;21.10;71.70
68476;DHT22;55464;48.266;14.188;2022-08-19T00:03:39;21.20;71.60
68476;DHT22;55464;48.266;14.188;2022-08-19T00:06:05;21.10;71.60
68476;DHT22;55464;48.266;14.188;2022-08-19T00:08:30;21.20;71.60
68476;DHT22;55464;48.266;14.188;2022-08-19T00:10:56;21.10;71.70
68476;DHT22;55464;48.266;14.188;2022-08-19T00:13:23;21.10;71.70
68476;DHT22;55464;48.266;14.188;2022-08-19T00:15:48;21.10;71.70
68476;DHT22;55464;48.266;14.188;2022-08-19T00:18:14;21.10;71.80
68476;DHT22;55464;48.266;14.188;2022-08-19T00:20:39;21.10;71.90
68476;DHT22;55464;48.266;14.188;2022-08-19T00:23:06;21.20;71.90
68476;DHT22;55464;48.266;14.188;2022-08-19T00:25:32;21.20;71.90
68476;DHT22;55464;48.266;14.188;2022-08-19T00:27:58;21.20;72.00
68476;DHT22;55464;48.266;14.188;2022-08-19T00:30:25;21.20;72.20
68476;DHT22;55464;48.266;14.188;2022-08-19T00:32:53;21.20;72.20
68476;DHT22;55464;48.266;14.188;2022-08-19T00:35:20;21.20;72.20
68476;DHT22;55464;48.266;14.188;2022-08-19T00:37:48;21.20;72.20
68476;DHT22;55464;48.266;14.188;2022-08-19T00:40:15;21.20;72.30
68476;DHT22;55464;48.266;14.188;2022-08-19T00:42:40;21.30;72.30
68476;DHT22;55464;48.266;14.188;2022-08-19T00:45:16;21.30;72.40
68476;DHT22;55464;48.266;14.188;2022-08-19T00:47:43;21.30;72.40
68476;DHT22;55464;48.266;14.188;2022-08-19T00:50:13;21.30;72.50
68476;DHT22;55464;48.266;14.188;2022-08-19T00:52:43;21.30;72.50
68476;DHT22;55464;48.266;14.188;2022-08-19T00:55:16;21.30;72.70
68476;DHT22;55464;48.266;14.188;2022-08-19T00:57:47;21.30;72.90
68476;DHT22;55464;48.266;14.188;2022-08-19T01:00:17;21.30;72.90
68476;DHT22;55464;48.266;14.188;2022-08-19T01:02:43;21.30;72.80
68476;DHT22;55464;48.266;14.188;2022-08-19T01:05:16;21.40;72.70
68476;DHT22;55464;48.266;14.188;2022-08-19T01:07:44;21.50;72.60
68476;DHT22;55464;48.266;14.188;2022-08-19T01:10:13;21.50;72.50
68476;DHT22;55464;48.266;14.188;2022-08-19T01:12:40;21.50;72.60
68476;DHT22;55464;48.266;14.188;2022-08-19T01:15:08;21.40;72.80
68476;DHT22;55464;48.266;14.188;2022-08-19T01:17:35;21.40;72.70
68476;DHT22;55464;48.266;14.188;2022-08-19T01:20:03;21.40;72.70
68476;DHT22;55464;48.266;14.188;2022-08-19T01:22:54;21.40;72.60
68476;DHT22;55464;48.266;14.188;2022-08-19T01:25:24;21.40;72.70
68476;DHT22;55464;48.266;14.188;2022-08-19T01:27:52;21.30;73.00
68476;DHT22;55464;48.266;14.188;2022-08-19T01:30:25;21.20;73.30
68476;DHT22;55464;48.266;14.188;2022-08-19T01:32:51;21.10;73.50
68476;DHT22;55464;48.266;14.188;2022-08-19T01:35:17;21.10;73.60
68476;DHT22;55464;48.266;14.188;2022-08-19T01:37:47;21.00;73.40
68476;DHT22;55464;48.266;14.188;2022-08-19T01:40:12;21.10;73.40
68476;DHT22;55464;48.266;14.188;2022-08-19T01:42:39;21.10;73.30
68476;DHT22;55464;48.266;14.188;2022-08-19T01:45:05;21.20;73.20
68476;DHT22;55464;48.266;14.188;2022-08-19T01:47:36;21.10;73.30
68476;DHT22;55464;48.266;14.188;2022-08-19T01:50:03;21.00;73.50
68476;DHT22;55464;48.266;14.188;2022-08-19T01:52:29;21.00;73.40
68476;DHT22;55464;48.266;14.188;2022-08-19T01:54:55;21.00;73.20
68476;DHT22;55464;48.266;14.188;2022-08-19T01:57:20;21.00;73.30
68476;DHT22;55464;48.266;14.188;2022-08-19T01:59:46;21.00;73.20
68476;DHT22;55464;48.266;14.188;2022-08-19T02:02:12;21.10;73.20
68476;DHT22;55464;48.266;14.188;2022-08-19T02:04:38;21.10;73.00
68476;DHT22;55464;48.266;14.188;2022-08-19T02:07:04;21.10;73.00
68476;DHT22;55464;48.266;14.188;2022-08-19T02:09:31;21.00;73.20
68476;DHT22;55464;48.266;14.188;2022-08-19T02:11:57;21.00;73.70
68476;DHT22;55464;48.266;14.188;2022-08-19T02:14:23;20.90;73.70
68476;DHT22;55464;48.266;14.188;2022-08-19T02:16:49;21.00;73.80
68476;DHT22;55464;48.266;14.188;2022-08-19T02:19:15;21.00;73.60
68476;DHT22;55464;48.266;14.188;2022-08-19T02:21:40;21.00;73.70
68476;DHT22;55464;48.266;14.188;2022-08-19T02:24:06;21.00;73.70
68476;DHT22;55464;48.266;14.188;2022-08-19T02:26:33;21.10;73.60
68476;DHT22;55464;48.266;14.188;2022-08-19T02:28:59;21.00;73.50
68476;DHT22;55464;48.266;14.188;2022-08-19T02:31:26;21.10;73.40
68476;DHT22;55464;48.266;14.188;2022-08-19T02:33:54;21.10;73.50
68476;DHT22;55464;48.266;14.188;2022-08-19T02:36:21;21.00;73.60
68476;DHT22;55464;48.266;14.188;2022-08-19T02:38:47;21.10;73.40
68476;DHT22;55464;48.266;14.188;2022-08-19T02:41:21;21.00;73.40
68476;DHT22;55464;48.266;14.188;2022-08-19T02:43:48;21.00;73.40
68476;DHT22;55464;48.266;14.188;2022-08-19T02:46:21;21.00;73.40
68476;DHT22;55464;48.266;14.188;2022-08-19T02:48:48;21.00;73.40
68476;DHT22;55464;48.266;14.188;2022-08-19T02:51:23;21.00;73.30
68476;DHT22;55464;48.266;14.188;2022-08-19T02:53:49;21.00;73.40
68476;DHT22;55464;48.266;14.188;2022-08-19T02:56:15;21.00;73.40
68476;DHT22;55464;48.266;14.188;2022-08-19T02:58:41;20.90;73.70
68476;DHT22;55464;48.266;14.188;2022-08-19T03:01:08;20.90;73.80
68476;DHT22;55464;48.266;14.188;2022-08-19T03:03:35;20.90;73.80
68476;DHT22;55464;48.266;14.188;2022-08-19T03:06:13;20.90;73.70
68476;DHT22;55464;48.266;14.188;2022-08-19T03:08:40;20.90;73.70
68476;DHT22;55464;48.266;14.188;2022-08-19T03:11:21;20.80;73.70
68476;DHT22;55464;48.266;14.188;2022-08-19T03:13:47;20.80;74.00
68476;DHT22;55464;48.266;14.188;2022-08-19T03:16:17;20.70;74.00
68476;DHT22;55464;48.266;14.188;2022-08-19T03:18:44;20.70;73.90
68476;DHT22;55464;48.266;14.188;2022-08-19T03:21:14;20.60;74.20
68476;DHT22;55464;48.266;14.188;2022-08-19T03:23:39;20.50;74.50
68476;DHT22;55464;48.266;14.188;2022-08-19T03:26:05;20.50;75.00
68476;DHT22;55464;48.266;14.188;2022-08-19T03:28:31;20.50;75.00
68476;DHT22;55464;48.266;14.188;2022-08-19T03:31:06;20.50;75.00
68476;DHT22;55464;48.266;14.188;2022-08-19T03:33:33;20.60;75.10
68476;DHT22;55464;48.266;14.188;2022-08-19T03:36:05;20.70;75.20
68476;DHT22;55464;48.266;14.188;2022-08-19T03:38:33;20.80;75.10
68476;DHT22;55464;48.266;14.188;2022-08-19T03:41:03;20.80;74.90
68476;DHT22;55464;48.266;14.188;2022-08-19T03:43:32;20.90;74.60
68476;DHT22;55464;48.266;14.188;2022-08-19T03:46:08;20.80;74.90
68476;DHT22;55464;48.266;14.188;2022-08-19T03:48:35;20.80;75.00
68476;DHT22;55464;48.266;14.188;2022-08-19T03:51:01;20.80;75.00
68476;DHT22;55464;48.266;14.188;2022-08-19T03:53:28;20.90;75.00
68476;DHT22;55464;48.266;14.188;2022-08-19T03:55:55;20.90;75.10
68476;DHT22;55464;48.266;14.188;2022-08-19T03:58:22;20.90;75.20
68476;DHT22;55464;48.266;14.188;2022-08-19T04:00:48;20.90;75.10
68476;DHT22;55464;48.266;14.188;2022-08-19T04:03:14;20.90;75.10
68476;DHT22;55464;48.266;14.188;2022-08-19T04:05:39;21.00;75.00
68476;DHT22;55464;48.266;14.188;2022-08-19T04:08:05;20.90;74.90
68476;DHT22;55464;48.266;14.188;2022-08-19T04:10:35;21.00;74.80
68476;DHT22;55464;48.266;14.188;2022-08-19T04:13:02;21.00;74.80
68476;DHT22;55464;48.266;14.188;2022-08-19T04:15:29;21.00;75.00
68476;DHT22;55464;48.266;14.188;2022-08-19T04:17:58;20.90;75.20
68476;DHT22;55464;48.266;14.188;2022-08-19T04:20:24;20.90;75.30
68476;DHT22;55464;48.266;14.188;2022-08-19T04:22:50;20.90;75.40
68476;DHT22;55464;48.266;14.188;2022-08-19T04:25:15;20.90;75.50
68476;DHT22;55464;48.266;14.188;2022-08-19T04:27:41;21.00;75.80
68476;DHT22;55464;48.266;14.188;2022-08-19T04:30:12;20.90;75.90
68476;DHT22;55464;48.266;14.188;2022-08-19T04:32:38;20.90;76.00
68476;DHT22;55464;48.266;14.188;2022-08-19T04:35:04;20.90;76.30
68476;DHT22;55464;48.266;14.188;2022-08-19T04:37:31;20.90;76.30
68476;DHT22;55464;48.266;14.188;2022-08-19T04:39:58;21.00;76.20
68476;DHT22;55464;48.266;14.188;2022-08-19T04:42:43;21.00;76.20
68476;DHT22;55464;48.266;14.188;2022-08-19T04:45:13;21.10;76.40
68476;DHT22;55464;48.266;14.188;2022-08-19T04:47:41;21.10;76.30
68476;DHT22;55464;48.266;14.188;2022-08-19T04:50:09;21.10;76.30
68476;DHT22;55464;48.266;14.188;2022-08-19T04:52:37;21.10;76.20
68476;DHT22;55464;48.266;14.188;2022-08-19T04:55:08;21.10;76.20
68476;DHT22;55464;48.266;14.188;2022-08-19T04:57:34;21.20;76.00
68476;DHT22;55464;48.266;14.188;2022-08-19T05:00:00;21.10;76.00
68476;DHT22;55464;48.266;14.188;2022-08-19T05:02:26;21.20;76.00
68476;DHT22;55464;48.266;14.188;2022-08-19T05:04:59;21.20;76.10
68476;DHT22;55464;48.266;14.188;2022-08-19T05:07:26;21.10;76.00
68476;DHT22;55464;48.266;14.188;2022-08-19T05:09:52;21.10;76.00
68476;DHT22;55464;48.266;14.188;2022-08-19T05:12:18;21.10;76.00
68476;DHT22;55464;48.266;14.188;2022-08-19T05:14:45;21.10;76.00
68476;DHT22;55464;48.266;14.188;2022-08-19T05:17:12;21.10;76.20
68476;DHT22;55464;48.266;14.188;2022-08-19T05:19:37;21.00;76.30
68476;DHT22;55464;48.266;14.188;2022-08-19T05:22:21;21.10;76.60
68476;DHT22;55464;48.266;14.188;2022-08-19T05:25:08;21.00;76.90
68476;DHT22;55464;48.266;14.188;2022-08-19T05:27:34;21.10;77.10
68476;DHT22;55464;48.266;14.188;2022-08-19T05:30:00;21.00;77.30
68476;DHT22;55464;48.266;14.188;2022-08-19T05:32:27;21.00;77.30
68476;DHT22;55464;48.266;14.188;2022-08-19T05:34:53;21.00;77.70
68476;DHT22;55464;48.266;14.188;2022-08-19T05:37:18;21.00;78.00
68476;DHT22;55464;48.266;14.188;2022-08-19T05:39:44;21.00;78.30
68476;DHT22;55464;48.266;14.188;2022-08-19T05:42:11;21.00;78.30
68476;DHT22;55464;48.266;14.188;2022-08-19T05:44:39;21.00;78.20
68476;DHT22;55464;48.266;14.188;2022-08-19T05:47:08;21.00;78.30
68476;DHT22;55464;48.266;14.188;2022-08-19T05:49:35;20.90;78.40
68476;DHT22;55464;48.266;14.188;2022-08-19T05:52:04;20.90;78.50
68476;DHT22;55464;48.266;14.188;2022-08-19T05:54:29;20.80;78.60
68476;DHT22;55464;48.266;14.188;2022-08-19T05:56:56;20.90;78.50
68476;DHT22;55464;48.266;14.188;2022-08-19T05:59:22;20.90;78.50
68476;DHT22;55464;48.266;14.188;2022-08-19T06:01:49;20.90;78.80
68476;DHT22;55464;48.266;14.188;2022-08-19T06:04:21;20.90;79.10
68476;DHT22;55464;48.266;14.188;2022-08-19T06:06:49;20.90;79.20
68476;DHT22;55464;48.266;14.188;2022-08-19T06:09:15;20.90;79.20
68476;DHT22;55464;48.266;14.188;2022-08-19T06:12:01;21.00;79.00
68476;DHT22;55464;48.266;14.188;2022-08-19T06:14:32;21.00;79.20
68476;DHT22;55464;48.266;14.188;2022-08-19T06:17:00;21.00;79.30
68476;DHT22;55464;48.266;14.188;2022-08-19T06:19:27;21.10;79.50
68476;DHT22;55464;48.266;14.188;2022-08-19T06:21:56;21.10;79.70
68476;DHT22;55464;48.266;14.188;2022-08-19T06:24:25;21.20;80.10
68476;DHT22;55464;48.266;14.188;2022-08-19T06:26:52;21.20;80.70
68476;DHT22;55464;48.266;14.188;2022-08-19T06:29:21;21.20;80.90
68476;DHT22;55464;48.266;14.188;2022-08-19T06:31:49;21.30;81.50
68476;DHT22;55464;48.266;14.188;2022-08-19T06:34:15;21.30;81.00
68476;DHT22;55464;48.266;14.188;2022-08-19T06:36:44;21.40;80.70
68476;DHT22;55464;48.266;14.188;2022-08-19T06:39:16;21.40;79.70
68476;DHT22;55464;48.266;14.188;2022-08-19T06:41:50;21.40;80.40
68476;DHT22;55464;48.266;14.188;2022-08-19T06:44:16;21.50;80.80
68476;DHT22;55464;48.266;14.188;2022-08-19T06:46:42;21.50;81.30
68476;DHT22;55464;48.266;14.188;2022-08-19T06:49:08;21.50;81.60
68476;DHT22;55464;48.266;14.188;2022-08-19T06:51:39;21.50;81.30
68476;DHT22;55464;48.266;14.188;2022-08-19T06:54:05;21.50;81.50
68476;DHT22;55464;48.266;14.188;2022-08-19T06:56:31;21.50;81.70
68476;DHT22;55464;48.266;14.188;2022-08-19T06:59:02;21.50;81.50
68476;DHT22;55464;48.266;14.188;2022-08-19T07:01:28;21.50;81.60
68476;DHT22;55464;48.266;14.188;2022-08-19T07:03:53;21.60;81.50
68476;DHT22;55464;48.266;14.188;2022-08-19T07:06:19;21.60;81.50
68476;DHT22;55464;48.266;14.188;2022-08-19T07:08:46;21.70;81.40
68476;DHT22;55464;48.266;14.188;2022-08-19T07:11:14;21.70;81.60
68476;DHT22;55464;48.266;14.188;2022-08-19T07:13:40;21.70;81.60
68476;DHT22;55464;48.266;14.188;2022-08-19T07:16:11;21.70;81.10
68476;DHT22;55464;48.266;14.188;2022-08-19T07:18:38;21.70;80.80
68476;DHT22;55464;48.266;14.188;2022-08-19T07:21:08;21.70;80.90
68476;DHT22;55464;48.266;14.188;2022-08-19T07:23:33;21.70;81.00
68476;DHT22;55464;48.266;14.188;2022-08-19T07:26:08;21.80;81.00
68476;DHT22;55464;48.266;14.188;2022-08-19T07:28:34;21.80;81.00
68476;DHT22;55464;48.266;14.188;2022-08-19T07:31:05;21.80;80.30
68476;DHT22;55464;48.266;14.188;2022-08-19T07:33:31;21.80;80.60
68476;DHT22;55464;48.266;14.188;2022-08-19T07:35:58;21.80;80.70
68476;DHT22;55464;48.266;14.188;2022-08-19T07:38:24;21.80;79.70
68476;DHT22;55464;48.266;14.188;2022-08-19T07:40:50;21.70;79.50
68476;DHT22;55464;48.266;14.188;2022-08-19T07:43:16;21.70;79.30
68476;DHT22;55464;48.266;14.188;2022-08-19T07:45:48;21.70;79.20
68476;DHT22;55464;48.266;14.188;2022-08-19T07:48:13;21.70;79.20
68476;DHT22;55464;48.266;14.188;2022-08-19T07:50:40;21.70;79.50
68476;DHT22;55464;48.266;14.188;2022-08-19T07:53:05;21.70;79.50
68476;DHT22;55464;48.266;14.188;2022-08-19T07:55:31;21.80;78.60
68476;DHT22;55464;48.266;14.188;2022-08-19T07:57:57;21.80;78.20
68476;DHT22;55464;48.266;14.188;2022-08-19T08:00:23;21.90;78.40
68476;DHT22;55464;48.266;14.188;2022-08-19T08:02:48;21.90;78.60
68476;DHT22;55464;48.266;14.188;2022-08-19T08:05:14;22.00;78.60
68476;DHT22;55464;48.266;14.188;2022-08-19T08:07:58;22.00;78.50
68476;DHT22;55464;48.266;14.188;2022-08-19T08:10:43;22.00;78.30
68476;DHT22;55464;48.266;14.188;2022-08-19T08:13:08;22.00;77.80
68476;DHT22;55464;48.266;14.188;2022-08-19T08:15:34;22.00;77.80
68476;DHT22;55464;48.266;14.188;2022-08-19T08:18:00;22.00;77.70
68476;DHT22;55464;48.266;14.188;2022-08-19T08:20:26;22.00;78.20
68476;DHT22;55464;48.266;14.188;2022-08-19T08:22:51;22.00;78.10
68476;DHT22;55464;48.266;14.188;2022-08-19T08:25:36;22.00;78.00
68476;DHT22;55464;48.266;14.188;2022-08-19T08:28:04;22.10;77.80
68476;DHT22;55464;48.266;14.188;2022-08-19T08:30:30;22.10;78.00
68476;DHT22;55464;48.266;14.188;2022-08-19T08:32:58;22.20;77.70
68476;DHT22;55464;48.266;14.188;2022-08-19T08:35:25;22.20;77.70
68476;DHT22;55464;48.266;14.188;2022-08-19T08:37:52;22.20;78.00
68476;DHT22;55464;48.266;14.188;2022-08-19T08:43:38;22.30;78.80
68476;DHT22;55464;48.266;14.188;2022-08-19T08:46:37;22.50;80.40
68476;DHT22;55464;48.266;14.188;2022-08-19T08:49:20;22.50;79.60
68476;DHT22;55464;48.266;14.188;2022-08-19T08:52:09;22.50;78.90
68476;DHT22;55464;48.266;14.188;2022-08-19T08:54:44;22.50;78.70
68476;DHT22;55464;48.266;14.188;2022-08-19T08:57:15;22.50;78.90
68476;DHT22;55464;48.266;14.188;2022-08-19T08:59:46;22.50;78.60
68476;DHT22;55464;48.266;14.188;2022-08-19T09:02:17;22.60;78.30
68476;DHT22;55464;48.266;14.188;2022-08-19T09:04:43;22.60;78.00
68476;DHT22;55464;48.266;14.188;2022-08-19T09:10:01;22.60;77.50
68476;DHT22;55464;48.266;14.188;2022-08-19T09:12:47;22.70;77.70
68476;DHT22;55464;48.266;14.188;2022-08-19T09:15:20;22.70;77.80
68476;DHT22;55464;48.266;14.188;2022-08-19T09:17:48;22.70;77.80
68476;DHT22;55464;48.266;14.188;2022-08-19T09:20:23;22.70;77.70
68476;DHT22;55464;48.266;14.188;2022-08-19T09:22:49;22.70;77.70
68476;DHT22;55464;48.266;14.188;2022-08-19T09:25:19;22.70;77.70
68476;DHT22;55464;48.266;14.188;2022-08-19T09:27:47;22.70;77.70
68476;DHT22;55464;48.266;14.188;2022-08-19T09:30:21;22.70;77.30
68476;DHT22;55464;48.266;14.188;2022-08-19T09:32:48;22.70;77.20
68476;DHT22;55464;48.266;14.188;2022-08-19T09:35:14;22.80;77.30
68476;DHT22;55464;48.266;14.188;2022-08-19T09:37:41;22.80;76.90
68476;DHT22;55464;48.266;14.188;2022-08-19T09:40:09;22.80;77.20
68476;DHT22;55464;48.266;14.188;2022-08-19T09:42:36;22.80;77.20
68476;DHT22;55464;48.266;14.188;2022-08-19T09:45:03;22.80;76.80
68476;DHT22;55464;48.266;14.188;2022-08-19T09:47:29;22.80;75.90
68476;DHT22;55464;48.266;14.188;2022-08-19T09:49:55;22.70;74.80
68476;DHT22;55464;48.266;14.188;2022-08-19T09:52:21;22.70;75.10
68476;DHT22;55464;48.266;14.188;2022-08-19T09:54:46;22.70;74.20
68476;DHT22;55464;48.266;14.188;2022-08-19T09:57:12;22.70;74.70
68476;DHT22;55464;48.266;14.188;2022-08-19T09:59:38;22.80;74.70
68476;DHT22;55464;48.266;14.188;2022-08-19T10:02:04;22.80;74.80
68476;DHT22;55464;48.266;14.188;2022-08-19T10:04:30;22.80;74.50
68476;DHT22;55464;48.266;14.188;2022-08-19T10:07:14;22.80;74.30
68476;DHT22;55464;48.266;14.188;2022-08-19T10:09:40;22.80;74.20
68476;DHT22;55464;48.266;14.188;2022-08-19T10:12:07;22.80;74.50
68476;DHT22;55464;48.266;14.188;2022-08-19T10:14:34;22.90;74.70
68476;DHT22;55464;48.266;14.188;2022-08-19T10:17:01;22.90;74.50
68476;DHT22;55464;48.266;14.188;2022-08-19T10:19:28;22.80;74.40
68476;DHT22;55464;48.266;14.188;2022-08-19T10:21:57;22.90;74.60
68476;DHT22;55464;48.266;14.188;2022-08-19T10:24:23;22.90;74.50
68476;DHT22;55464;48.266;14.188;2022-08-19T10:26:51;22.90;75.00
68476;DHT22;55464;48.266;14.188;2022-08-19T10:29:16;22.90;74.80
68476;DHT22;55464;48.266;14.188;2022-08-19T10:31:42;23.00;74.90
68476;DHT22;55464;48.266;14.188;2022-08-19T10:34:08;23.00;74.90
68476;DHT22;55464;48.266;14.188;2022-08-19T10:36:36;23.00;74.90
68476;DHT22;55464;48.266;14.188;2022-08-19T10:39:06;23.10;74.80
68476;DHT22;55464;48.266;14.188;2022-08-19T10:41:32;23.10;74.60
68476;DHT22;55464;48.266;14.188;2022-08-19T10:44:04;23.20;74.30
68476;DHT22;55464;48.266;14.188;2022-08-19T10:46:31;23.20;73.80
68476;DHT22;55464;48.266;14.188;2022-08-19T10:49:01;23.20;73.10
68476;DHT22;55464;48.266;14.188;2022-08-19T10:51:27;23.30;72.90
68476;DHT22;55464;48.266;14.188;2022-08-19T10:54:11;23.30;72.80
68476;DHT22;55464;48.266;14.188;2022-08-19T10:56:37;23.30;73.50
68476;DHT22;55464;48.266;14.188;2022-08-19T10:59:26;23.40;73.80
68476;DHT22;55464;48.266;14.188;2022-08-19T11:01:54;23.40;72.60
68476;DHT22;55464;48.266;14.188;2022-08-19T11:04:20;23.50;72.70
68476;DHT22;55464;48.266;14.188;2022-08-19T11:06:47;23.50;73.10
68476;DHT22;55464;48.266;14.188;2022-08-19T11:09:20;23.50;72.40
68476;DHT22;55464;48.266;14.188;2022-08-19T11:11:46;23.50;69.90
68476;DHT22;55464;48.266;14.188;2022-08-19T11:14:15;23.50;70.60
68476;DHT22;55464;48.266;14.188;2022-08-19T11:16:42;23.50;70.90
68476;DHT22;55464;48.266;14.188;2022-08-19T11:19:09;23.60;71.30
68476;DHT22;55464;48.266;14.188;2022-08-19T11:21:40;23.60;69.40
68476;DHT22;55464;48.266;14.188;2022-08-19T11:24:09;23.60;69.20
68476;DHT22;55464;48.266;14.188;2022-08-19T11:26:36;23.70;68.20
68476;DHT22;55464;48.266;14.188;2022-08-19T11:29:03;23.70;68.90
68476;DHT22;55464;48.266;14.188;2022-08-19T11:31:32;23.70;69.40
68476;DHT22;55464;48.266;14.188;2022-08-19T11:34:00;23.70;69.50
68476;DHT22;55464;48.266;14.188;2022-08-19T11:36:27;23.90;66.40
68476;DHT22;55464;48.266;14.188;2022-08-19T11:38:53;23.90;66.60
68476;DHT22;55464;48.266;14.188;2022-08-19T11:41:20;23.90;66.40
68476;DHT22;55464;48.266;14.188;2022-08-19T11:43:48;23.90;66.40
68476;DHT22;55464;48.266;14.188;2022-08-19T11:46:15;24.00;66.20
68476;DHT22;55464;48.266;14.188;2022-08-19T11:48:42;24.00;65.70
68476;DHT22;55464;48.266;14.188;2022-08-19T11:51:11;24.00;65.90
68476;DHT22;55464;48.266;14.188;2022-08-19T11:53:38;24.20;64.30
68476;DHT22;55464;48.266;14.188;2022-08-19T11:56:05;24.20;64.80
68476;DHT22;55464;48.266;14.188;2022-08-19T11:58:31;24.20;64.70
68476;DHT22;55464;48.266;14.188;2022-08-19T12:00:57;24.20;65.20
68476;DHT22;55464;48.266;14.188;2022-08-19T12:03:23;24.20;65.10
68476;DHT22;55464;48.266;14.188;2022-08-19T12:05:49;24.30;63.30
68476;DHT22;55464;48.266;14.188;2022-08-19T12:08:15;24.30;63.80
68476;DHT22;55464;48.266;14.188;2022-08-19T12:10:42;24.30;64.40
68476;DHT22;55464;48.266;14.188;2022-08-19T12:13:10;24.30;64.60
68476;DHT22;55464;48.266;14.188;2022-08-19T12:15:37;24.30;64.90
68476;DHT22;55464;48.266;14.188;2022-08-19T12:18:04;24.20;64.40
68476;DHT22;55464;48.266;14.188;2022-08-19T12:20:30;24.20;64.10
68476;DHT22;55464;48.266;14.188;2022-08-19T12:22:56;24.20;64.50
68476;DHT22;55464;48.266;14.188;2022-08-19T12:25:22;24.20;65.10
68476;DHT22;55464;48.266;14.188;2022-08-19T12:27:47;24.20;65.80
68476;DHT22;55464;48.266;14.188;2022-08-19T12:30:14;24.20;65.90
68476;DHT22;55464;48.266;14.188;2022-08-19T12:32:40;24.20;64.60
68476;DHT22;55464;48.266;14.188;2022-08-19T12:35:06;24.20;65.00
68476;DHT22;55464;48.266;14.188;2022-08-19T12:37:34;24.20;64.50
68476;DHT22;55464;48.266;14.188;2022-08-19T12:40:00;24.20;64.60
68476;DHT22;55464;48.266;14.188;2022-08-19T12:42:26;24.20;65.20
68476;DHT22;55464;48.266;14.188;2022-08-19T12:44:52;24.20;65.40
68476;DHT22;55464;48.266;14.188;2022-08-19T12:47:18;24.20;64.50
68476;DHT22;55464;48.266;14.188;2022-08-19T12:49:44;24.20;64.10
68476;DHT22;55464;48.266;14.188;2022-08-19T12:52:10;24.20;63.60
68476;DHT22;55464;48.266;14.188;2022-08-19T12:54:37;24.30;63.10
68476;DHT22;55464;48.266;14.188;2022-08-19T12:57:07;24.20;63.60
68476;DHT22;55464;48.266;14.188;2022-08-19T12:59:34;24.40;63.20
68476;DHT22;55464;48.266;14.188;2022-08-19T13:02:00;24.40;62.40
68476;DHT22;55464;48.266;14.188;2022-08-19T13:04:26;24.50;61.90
68476;DHT22;55464;48.266;14.188;2022-08-19T13:06:51;24.40;62.30
68476;DHT22;55464;48.266;14.188;2022-08-19T13:09:17;24.40;63.10
68476;DHT22;55464;48.266;14.188;2022-08-19T13:11:42;24.40;63.20
68476;DHT22;55464;48.266;14.188;2022-08-19T13:14:09;24.50;63.40
68476;DHT22;55464;48.266;14.188;2022-08-19T13:16:36;24.50;63.80
68476;DHT22;55464;48.266;14.188;2022-08-19T13:19:04;24.50;63.50
68476;DHT22;55464;48.266;14.188;2022-08-19T13:21:30;24.60;61.80
68476;DHT22;55464;48.266;14.188;2022-08-19T13:23:56;24.60;62.30
68476;DHT22;55464;48.266;14.188;2022-08-19T13:26:22;24.70;62.30
68476;DHT22;55464;48.266;14.188;2022-08-19T13:28:48;25.00;60.40
68476;DHT22;55464;48.266;14.188;2022-08-19T13:31:34;25.10;60.50
68476;DHT22;55464;48.266;14.188;2022-08-19T13:34:34;25.00;59.80
68476;DHT22;55464;48.266;14.188;2022-08-19T13:37:02;25.10;60.00
68476;DHT22;55464;48.266;14.188;2022-08-19T13:39:30;25.00;60.70
68476;DHT22;55464;48.266;14.188;2022-08-19T13:41:56;25.00;61.00
68476;DHT22;55464;48.266;14.188;2022-08-19T13:44:21;25.00;59.90
68476;DHT22;55464;48.266;14.188;2022-08-19T13:46:48;25.00;61.00
68476;DHT22;55464;48.266;14.188;2022-08-19T13:49:15;25.00;60.70
68476;DHT22;55464;48.266;14.188;2022-08-19T13:51:42;25.00;60.50
68476;DHT22;55464;48.266;14.188;2022-08-19T13:54:09;25.00;60.90
68476;DHT22;55464;48.266;14.188;2022-08-19T13:56:39;25.00;61.40
68476;DHT22;55464;48.266;14.188;2022-08-19T13:59:05;25.10;60.10
68476;DHT22;55464;48.266;14.188;2022-08-19T14:01:30;25.30;58.30
68476;DHT22;55464;48.266;14.188;2022-08-19T14:03:56;25.40;57.00
68476;DHT22;55464;48.266;14.188;2022-08-19T14:06:22;25.40;57.70
68476;DHT22;55464;48.266;14.188;2022-08-19T14:08:47;25.30;58.70
68476;DHT22;55464;48.266;14.188;2022-08-19T14:11:14;25.40;61.00
68476;DHT22;55464;48.266;14.188;2022-08-19T14:13:40;25.60;60.00
68476;DHT22;55464;48.266;14.188;2022-08-19T14:16:11;26.00;59.20
68476;DHT22;55464;48.266;14.188;2022-08-19T14:18:37;26.50;58.00
68476;DHT22;55464;48.266;14.188;2022-08-19T14:21:04;27.50;56.20
68476;DHT22;55464;48.266;14.188;2022-08-19T14:23:31;28.50;51.60
68476;DHT22;55464;48.266;14.188;2022-08-19T14:26:23;29.40;48.30
68476;DHT22;55464;48.266;14.188;2022-08-19T14:28:49;29.40;46.60
68476;DHT22;55464;48.266;14.188;2022-08-19T14:31:16;29.30;46.00
68476;DHT22;55464;48.266;14.188;2022-08-19T14:33:47;29.20;47.10
68476;DHT22;55464;48.266;14.188;2022-08-19T14:36:13;29.30;47.10
68476;DHT22;55464;48.266;14.188;2022-08-19T14:38:39;29.20;46.70
68476;DHT22;55464;48.266;14.188;2022-08-19T14:43:36;28.10;49.40
68476;DHT22;55464;48.266;14.188;2022-08-19T14:46:01;27.50;51.30
68476;DHT22;55464;48.266;14.188;2022-08-19T14:48:27;27.10;51.20
68476;DHT22;55464;48.266;14.188;2022-08-19T14:50:53;26.90;52.20
68476;DHT22;55464;48.266;14.188;2022-08-19T14:53:18;26.70;52.30
68476;DHT22;55464;48.266;14.188;2022-08-19T14:55:46;26.40;53.20
68476;DHT22;55464;48.266;14.188;2022-08-19T14:58:12;26.10;54.30
68476;DHT22;55464;48.266;14.188;2022-08-19T15:00:38;25.90;55.20
68476;DHT22;55464;48.266;14.188;2022-08-19T15:03:04;25.80;55.30
68476;DHT22;55464;48.266;14.188;2022-08-19T15:05:29;25.60;55.10
68476;DHT22;55464;48.266;14.188;2022-08-19T15:07:55;25.50;56.00
68476;DHT22;55464;48.266;14.188;2022-08-19T15:10:22;25.40;55.60
68476;DHT22;55464;48.266;14.188;2022-08-19T15:12:48;25.30;56.10
68476;DHT22;55464;48.266;14.188;2022-08-19T15:15:15;25.30;57.20
68476;DHT22;55464;48.266;14.188;2022-08-19T15:17:43;25.20;61.20
68476;DHT22;55464;48.266;14.188;2022-08-19T15:20:10;25.20;69.90
68476;DHT22;55464;48.266;14.188;2022-08-19T15:22:36;24.90;70.00
68476;DHT22;55464;48.266;14.188;2022-08-19T15:25:04;23.60;73.70
68476;DHT22;55464;48.266;14.188;2022-08-19T15:27:30;22.50;77.20
68476;DHT22;55464;48.266;14.188;2022-08-19T15:29:56;21.60;79.70